Time;durP1;ratioP1;P1;durP2;ratioP2;P2;SDS_P1;SDS_P2;PMS_P1;PMS_P2;Temp;Humidity;BMP_temperature;BMP_pressure;BME280_temperature;BME280_humidity;BME280_pressure;Samples;Min_cycle;Max_cycle;Signal;HPM_P1;HPM_P2
2023/08/07 00:00:33;;;;;;;4.07;2.50;;;14.60;99.90;;;;;;4843818;29;20098;-53
2023/08/07 00:03:00;;;;;;;4.82;2.22;;;14.60;99.90;;;;;;4872402;29;20386;-50
2023/08/07 00:05:26;;;;;;;6.75;3.00;;;14.50;99.90;;;;;;4862111;29;20109;-53
2023/08/07 00:07:53;;;;;;;4.43;2.53;;;14.50;99.90;;;;;;4862558;29;20053;-52
2023/08/07 00:10:20;;;;;;;4.45;2.33;;;14.50;99.90;;;;;;4862326;29;20053;-51
2023/08/07 00:12:47;;;;;;;4.90;2.00;;;14.40;99.90;;;;;;4862207;29;20052;-55
2023/08/07 00:15:14;;;;;;;4.97;1.92;;;14.40;99.90;;;;;;4862398;29;20045;-57
2023/08/07 00:17:41;;;;;;;3.75;1.98;;;14.40;99.90;;;;;;4862175;29;20136;-53
2023/08/07 00:20:07;;;;;;;4.10;1.88;;;14.40;99.90;;;;;;4862228;29;20041;-52
2023/08/07 00:22:34;;;;;;;2.92;1.67;;;14.30;99.90;;;;;;4876223;29;20485;-54
2023/08/07 00:25:01;;;;;;;4.03;1.60;;;14.30;99.90;;;;;;4862048;29;20120;-52
2023/08/07 00:27:28;;;;;;;4.65;2.05;;;14.30;99.90;;;;;;4861971;29;20474;-50
2023/08/07 00:29:54;;;;;;;4.07;1.80;;;14.20;99.90;;;;;;4862165;29;20050;-48
2023/08/07 00:32:21;;;;;;;4.07;1.55;;;14.20;99.90;;;;;;4862204;29;20438;-53
2023/08/07 00:34:48;;;;;;;3.30;1.67;;;14.20;99.90;;;;;;4860736;29;20124;-52
2023/08/07 00:37:15;;;;;;;4.85;1.80;;;14.20;99.90;;;;;;4861622;29;20041;-48
2023/08/07 00:39:42;;;;;;;3.55;2.08;;;14.20;99.90;;;;;;4861754;29;20144;-53
2023/08/07 00:42:09;;;;;;;4.40;2.17;;;14.10;99.90;;;;;;4861612;29;20140;-53
2023/08/07 00:44:36;;;;;;;2.70;2.10;;;14.10;99.90;;;;;;4862018;29;20104;-54
2023/08/07 00:47:04;;;;;;;3.10;2.10;;;14.10;99.90;;;;;;4861284;29;20057;-49
2023/08/07 00:49:31;;;;;;;4.28;1.90;;;14.10;99.90;;;;;;4861338;29;20060;-56
2023/08/07 00:51:58;;;;;;;4.05;2.10;;;14.00;99.90;;;;;;4861185;29;20053;-56
2023/08/07 00:54:25;;;;;;;5.22;2.53;;;14.00;99.90;;;;;;4860265;29;20054;-47
2023/08/07 00:56:52;;;;;;;6.32;2.20;;;14.00;99.90;;;;;;4861053;29;20076;-49
2023/08/07 00:59:19;;;;;;;3.78;2.10;;;13.90;99.90;;;;;;4875195;29;20052;-47
2023/08/07 01:01:46;;;;;;;4.03;2.40;;;13.90;99.90;;;;;;4861215;29;20056;-49
2023/08/07 01:04:12;;;;;;;4.38;2.03;;;13.90;99.90;;;;;;4861112;29;20513;-49
2023/08/07 01:06:39;;;;;;;5.88;2.05;;;13.90;99.90;;;;;;4859903;29;20572;-49
2023/08/07 01:09:06;;;;;;;6.03;1.70;;;13.80;99.90;;;;;;4860603;29;20413;-49
2023/08/07 01:11:34;;;;;;;5.30;1.77;;;13.80;99.90;;;;;;4875092;29;20073;-48
2023/08/07 01:14:01;;;;;;;3.63;1.77;;;13.80;99.90;;;;;;4860702;29;20056;-52
2023/08/07 01:16:28;;;;;;;3.67;1.67;;;13.70;99.90;;;;;;4861337;29;20045;-52
2023/08/07 01:18:55;;;;;;;2.85;1.60;;;13.80;99.90;;;;;;4861582;29;20048;-49
2023/08/07 01:21:22;;;;;;;2.90;1.80;;;13.70;99.90;;;;;;4861316;29;20055;-51
2023/08/07 01:23:49;;;;;;;3.70;1.88;;;13.70;99.90;;;;;;4860344;29;20045;-49
2023/08/07 01:26:16;;;;;;;2.40;1.40;;;13.70;99.90;;;;;;4861246;29;20053;-50
2023/08/07 01:28:43;;;;;;;2.63;1.40;;;13.60;99.90;;;;;;4859550;29;20053;-54
2023/08/07 01:31:10;;;;;;;3.53;1.83;;;13.60;99.90;;;;;;4859855;29;20102;-51
2023/08/07 01:33:37;;;;;;;3.67;1.80;;;13.60;99.90;;;;;;4859697;29;20050;-51
2023/08/07 01:36:04;;;;;;;3.70;2.10;;;13.50;99.90;;;;;;4875254;29;20069;-50
2023/08/07 01:38:31;;;;;;;5.70;1.77;;;13.50;99.90;;;;;;4875790;29;20041;-51
2023/08/07 01:40:58;;;;;;;4.25;2.15;;;13.50;99.90;;;;;;4874834;29;20045;-50
2023/08/07 01:43:24;;;;;;;3.97;1.90;;;13.40;99.90;;;;;;4861196;29;20059;-51
2023/08/07 01:45:51;;;;;;;2.72;1.70;;;13.40;99.90;;;;;;4861084;29;20045;-53
2023/08/07 01:48:18;;;;;;;6.28;2.15;;;13.40;99.90;;;;;;4860663;29;20076;-51
2023/08/07 01:50:45;;;;;;;3.38;1.67;;;13.30;99.90;;;;;;4860819;29;20060;-55
2023/08/07 01:53:11;;;;;;;4.03;1.85;;;13.30;99.90;;;;;;4860471;29;20038;-53
2023/08/07 01:55:38;;;;;;;5.00;1.92;;;13.30;99.90;;;;;;4860829;29;20054;-50
2023/08/07 01:58:05;;;;;;;2.90;1.58;;;13.30;99.90;;;;;;4860724;29;20110;-48
2023/08/07 02:00:32;;;;;;;4.13;1.60;;;13.20;99.90;;;;;;4875074;29;20503;-49
2023/08/07 02:02:59;;;;;;;3.67;1.75;;;13.20;99.90;;;;;;4861601;29;20073;-51
2023/08/07 02:05:26;;;;;;;3.70;1.50;;;13.20;99.90;;;;;;4864448;29;20456;-51
2023/08/07 02:07:53;;;;;;;3.17;1.60;;;13.20;99.90;;;;;;4864479;29;20099;-52
2023/08/07 02:10:20;;;;;;;3.58;1.70;;;13.20;99.90;;;;;;4864301;29;20044;-54
2023/08/07 02:12:46;;;;;;;2.67;1.58;;;13.20;99.90;;;;;;4863179;29;20046;-56
2023/08/07 02:15:13;;;;;;;3.45;1.83;;;13.20;99.90;;;;;;4862784;29;20042;-56
2023/08/07 02:17:41;;;;;;;3.92;1.70;;;13.20;99.90;;;;;;4862431;29;20048;-52
2023/08/07 02:20:08;;;;;;;3.25;1.70;;;13.10;99.90;;;;;;4864012;29;20053;-54
2023/08/07 02:22:35;;;;;;;3.78;1.70;;;13.10;99.90;;;;;;4864417;29;20049;-54
2023/08/07 02:25:01;;;;;;;4.30;1.60;;;13.10;99.90;;;;;;4864329;29;20462;-54
2023/08/07 02:27:28;;;;;;;7.13;1.70;;;13.00;99.90;;;;;;4863097;29;20429;-53
2023/08/07 02:29:55;;;;;;;2.47;1.60;;;13.00;99.90;;;;;;4863918;29;20482;-50
2023/08/07 02:32:23;;;;;;;4.68;1.60;;;13.00;99.90;;;;;;4862613;29;20490;-53
2023/08/07 02:34:50;;;;;;;5.13;1.67;;;12.90;99.90;;;;;;4863774;29;20049;-52
2023/08/07 02:37:16;;;;;;;4.95;1.52;;;12.90;99.90;;;;;;4863834;29;20116;-54
2023/08/07 02:39:43;;;;;;;4.03;2.00;;;12.90;99.90;;;;;;4863977;29;20395;-53
2023/08/07 02:42:10;;;;;;;4.68;1.75;;;12.90;99.90;;;;;;4864126;29;20069;-50
2023/08/07 02:44:37;;;;;;;2.83;1.50;;;12.90;99.90;;;;;;4863918;29;20400;-49
2023/08/07 02:47:03;;;;;;;4.90;1.58;;;12.80;99.90;;;;;;4862228;29;20058;-53
2023/08/07 02:49:30;;;;;;;5.47;1.38;;;12.80;99.90;;;;;;4877561;29;20084;-50
2023/08/07 02:51:57;;;;;;;5.53;1.60;;;12.80;99.90;;;;;;4862309;29;20065;-52
2023/08/07 02:54:24;;;;;;;2.75;1.52;;;12.80;99.90;;;;;;4863591;29;20098;-51
2023/08/07 02:56:51;;;;;;;4.28;1.63;;;12.70;99.90;;;;;;4877645;29;20076;-52
2023/08/07 02:59:18;;;;;;;2.75;1.65;;;12.70;99.90;;;;;;4863586;29;20048;-53
2023/08/07 03:01:44;;;;;;;3.70;1.80;;;12.60;99.90;;;;;;4861934;29;20498;-55
2023/08/07 03:04:11;;;;;;;4.15;1.60;;;12.60;99.90;;;;;;4863536;29;20486;-51
2023/08/07 03:06:38;;;;;;;2.92;1.90;;;12.60;99.90;;;;;;4877575;29;20041;-51
2023/08/07 03:09:05;;;;;;;4.65;1.65;;;12.60;99.90;;;;;;4863514;29;20056;-50
2023/08/07 03:11:32;;;;;;;3.65;1.58;;;12.60;99.90;;;;;;4862080;29;20443;-51
2023/08/07 03:13:58;;;;;;;2.83;1.63;;;12.50;99.90;;;;;;4863142;29;20152;-50
2023/08/07 03:16:25;;;;;;;4.85;1.80;;;12.50;99.90;;;;;;4861488;29;20050;-53
2023/08/07 03:18:52;;;;;;;2.75;1.42;;;12.50;99.90;;;;;;4877658;29;20069;-52
2023/08/07 03:21:19;;;;;;;3.10;2.00;;;12.50;99.90;;;;;;4862010;29;20063;-51
2023/08/07 03:23:46;;;;;;;4.15;1.40;;;12.50;99.90;;;;;;4861888;29;20053;-54
2023/08/07 03:26:13;;;;;;;4.45;1.60;;;12.50;99.90;;;;;;4863161;29;20050;-54
2023/08/07 03:28:42;;;;;;;4.65;1.77;;;12.40;99.90;;;;;;4863096;29;20056;-51
2023/08/07 03:31:09;;;;;;;6.82;1.67;;;12.40;99.90;;;;;;4861847;29;20600;-54
2023/08/07 03:33:36;;;;;;;3.35;1.58;;;12.30;99.90;;;;;;4861458;29;20655;-54
2023/08/07 03:36:04;;;;;;;3.72;1.55;;;12.30;99.90;;;;;;4861456;29;20041;-55
2023/08/07 03:38:32;;;;;;;2.95;1.60;;;12.30;99.90;;;;;;4861341;29;20137;-53
2023/08/07 03:40:59;;;;;;;3.33;1.63;;;12.20;99.90;;;;;;4862810;29;20041;-54
2023/08/07 03:43:27;;;;;;;4.18;1.73;;;12.20;99.90;;;;;;4861492;29;20485;-51
2023/08/07 03:45:53;;;;;;;3.13;1.63;;;12.20;99.90;;;;;;4876922;29;20160;-55
2023/08/07 03:48:20;;;;;;;3.10;1.67;;;12.20;99.90;;;;;;4877040;29;20057;-51
2023/08/07 03:50:47;;;;;;;3.65;1.50;;;12.20;99.90;;;;;;4876847;29;20056;-53
2023/08/07 03:53:14;;;;;;;2.67;1.45;;;12.20;99.90;;;;;;4876645;29;20041;-50
2023/08/07 03:55:45;;;;;;;3.08;1.50;;;12.20;99.90;;;;;;4861138;29;20102;-50
2023/08/07 03:58:12;;;;;;;2.67;1.60;;;12.20;99.90;;;;;;4862021;29;20048;-51
2023/08/07 04:00:38;;;;;;;4.93;1.70;;;12.20;99.90;;;;;;4876796;29;20055;-54
2023/08/07 04:03:05;;;;;;;3.15;1.65;;;12.20;99.90;;;;;;4845867;29;20046;-53
2023/08/07 04:05:33;;;;;;;4.13;1.88;;;12.10;99.90;;;;;;4862280;29;20068;-50
2023/08/07 04:08:00;;;;;;;3.28;1.70;;;12.10;99.90;;;;;;4862486;29;20041;-56
2023/08/07 04:10:27;;;;;;;2.97;1.80;;;12.10;99.90;;;;;;4862320;29;20053;-55
2023/08/07 04:12:54;;;;;;;3.92;1.80;;;12.10;99.90;;;;;;4876877;29;20053;-52
2023/08/07 04:15:20;;;;;;;4.35;2.00;;;12.10;99.90;;;;;;4862207;29;20052;-54
2023/08/07 04:17:47;;;;;;;3.15;1.60;;;12.10;99.90;;;;;;4860674;29;20085;-54
2023/08/07 04:20:14;;;;;;;3.55;1.90;;;12.10;99.90;;;;;;4876476;29;20052;-52
2023/08/07 04:22:41;;;;;;;4.53;1.85;;;12.00;99.90;;;;;;4862333;29;20047;-52
2023/08/07 04:25:08;;;;;;;2.75;1.73;;;12.00;99.90;;;;;;4862088;29;20053;-49
2023/08/07 04:27:35;;;;;;;4.55;1.85;;;12.00;99.90;;;;;;4875740;29;20049;-56
2023/08/07 04:30:02;;;;;;;3.35;1.70;;;12.00;99.90;;;;;;4876238;29;20140;-52
2023/08/07 04:32:29;;;;;;;2.95;1.60;;;12.00;99.90;;;;;;4876139;29;20049;-49
2023/08/07 04:34:56;;;;;;;5.45;1.98;;;12.00;99.90;;;;;;4861972;29;20052;-50
2023/08/07 04:37:23;;;;;;;4.82;2.05;;;11.90;99.90;;;;;;4861766;29;20042;-50
2023/08/07 04:39:49;;;;;;;3.88;2.00;;;11.90;99.90;;;;;;4875966;29;20500;-52
2023/08/07 04:42:16;;;;;;;3.92;2.00;;;11.90;99.90;;;;;;4862176;29;20052;-53
2023/08/07 04:44:43;;;;;;;3.67;1.70;;;11.90;99.90;;;;;;4861831;29;20058;-50
2023/08/07 04:47:10;;;;;;;4.63;1.85;;;11.90;99.90;;;;;;4861668;29;20049;-52
2023/08/07 04:49:37;;;;;;;5.20;1.88;;;11.90;99.90;;;;;;4861920;29;20058;-50
2023/08/07 04:52:03;;;;;;;6.55;2.20;;;11.90;99.90;;;;;;4861572;29;20060;-57
2023/08/07 04:54:46;;;;;;;7.22;1.83;;;11.80;99.90;;;;;;4875353;29;20056;-50
2023/08/07 04:57:13;;;;;;;4.30;1.92;;;11.90;99.90;;;;;;4861195;29;20041;-55
2023/08/07 04:59:39;;;;;;;2.90;1.70;;;11.90;99.90;;;;;;4861328;29;20045;-57
2023/08/07 05:02:06;;;;;;;6.05;2.00;;;12.00;99.90;;;;;;4861086;29;20038;-56
2023/08/07 05:04:33;;;;;;;3.50;2.17;;;12.10;99.90;;;;;;4861083;29;20466;-50
2023/08/07 05:07:00;;;;;;;3.08;1.90;;;12.20;99.90;;;;;;4861379;29;20041;-56
2023/08/07 05:09:26;;;;;;;4.63;2.13;;;12.30;99.90;;;;;;4861852;29;20044;-51
2023/08/07 05:11:53;;;;;;;6.10;1.90;;;12.30;99.90;;;;;;4875765;29;20481;-49
2023/08/07 05:14:21;;;;;;;3.65;1.90;;;12.30;99.90;;;;;;4860362;29;20088;-53
2023/08/07 05:16:47;;;;;;;5.43;2.03;;;12.40;99.90;;;;;;4861434;29;20437;-49
2023/08/07 05:19:14;;;;;;;6.40;2.20;;;12.40;99.90;;;;;;4861513;29;20098;-50
2023/08/07 05:21:41;;;;;;;3.90;1.67;;;12.40;99.90;;;;;;4861100;29;20061;-51
2023/08/07 05:24:08;;;;;;;6.80;1.90;;;12.50;99.90;;;;;;4861050;29;20049;-51
2023/08/07 05:26:34;;;;;;;3.47;1.80;;;12.60;99.90;;;;;;4861223;29;20050;-52
2023/08/07 05:29:01;;;;;;;5.47;1.90;;;12.80;99.90;;;;;;4860808;29;20068;-52
2023/08/07 05:31:28;;;;;;;3.80;1.85;;;12.90;99.90;;;;;;4861338;29;20053;-48
2023/08/07 05:33:55;;;;;;;3.85;2.10;;;13.00;99.90;;;;;;4860033;29;20053;-53
2023/08/07 05:36:22;;;;;;;5.05;1.80;;;13.10;99.90;;;;;;4861018;29;20086;-52
2023/08/07 05:38:49;;;;;;;2.47;1.52;;;13.30;99.90;;;;;;4860798;29;20046;-54
2023/08/07 05:41:16;;;;;;;5.60;1.98;;;13.40;99.90;;;;;;4860971;29;20413;-51
2023/08/07 05:43:43;;;;;;;3.90;1.52;;;13.50;99.90;;;;;;4860831;29;20140;-54
2023/08/07 05:46:10;;;;;;;3.28;1.73;;;13.70;99.90;;;;;;4860455;29;20048;-52
2023/08/07 05:48:36;;;;;;;6.55;1.85;;;13.80;99.90;;;;;;4861092;29;20045;-55
2023/08/07 05:51:03;;;;;;;4.93;1.95;;;13.90;99.90;;;;;;4861289;29;20045;-50
2023/08/07 05:53:30;;;;;;;4.35;1.80;;;13.90;99.90;;;;;;4860812;29;20042;-53
2023/08/07 05:55:57;;;;;;;3.00;1.67;;;13.80;99.90;;;;;;4860270;29;20054;-52
2023/08/07 05:58:23;;;;;;;3.92;1.88;;;13.80;99.90;;;;;;4861050;29;20042;-52
2023/08/07 06:00:50;;;;;;;3.80;2.00;;;13.70;99.90;;;;;;4860631;29;20041;-52
2023/08/07 06:03:17;;;;;;;5.93;1.92;;;13.70;99.90;;;;;;4861015;29;20042;-55
2023/08/07 06:05:44;;;;;;;3.63;1.80;;;13.60;99.90;;;;;;4861025;29;20052;-55
2023/08/07 06:08:10;;;;;;;3.75;2.25;;;13.60;99.90;;;;;;4860608;29;20144;-49
2023/08/07 06:10:37;;;;;;;3.53;2.13;;;13.50;99.90;;;;;;4859430;29;20046;-54
2023/08/07 06:13:05;;;;;;;4.07;2.25;;;13.50;99.90;;;;;;4860598;29;20049;-54
2023/08/07 06:15:32;;;;;;;4.55;2.38;;;13.40;99.90;;;;;;4860468;29;20048;-50
2023/08/07 06:17:58;;;;;;;4.28;2.20;;;13.40;99.90;;;;;;4860289;29;20042;-58
2023/08/07 06:20:25;;;;;;;4.63;2.40;;;13.40;99.90;;;;;;4859213;29;20049;-56
2023/08/07 06:22:52;;;;;;;5.13;2.50;;;13.40;99.90;;;;;;4860517;29;20046;-52
2023/08/07 06:25:19;;;;;;;3.97;2.17;;;13.30;99.90;;;;;;4860697;29;20381;-47
2023/08/07 06:27:46;;;;;;;6.75;2.17;;;13.40;99.90;;;;;;4859685;29;20046;-52
2023/08/07 06:30:13;;;;;;;5.60;2.15;;;13.40;99.90;;;;;;4860428;29;20050;-49
2023/08/07 06:32:40;;;;;;;5.15;1.90;;;13.40;99.90;;;;;;4860577;29;20102;-49
2023/08/07 06:35:07;;;;;;;3.53;1.92;;;13.40;99.90;;;;;;4860007;29;20045;-50
2023/08/07 06:37:34;;;;;;;6.05;2.60;;;13.50;99.90;;;;;;4860488;29;20045;-51
2023/08/07 06:40:02;;;;;;;6.53;2.30;;;13.60;99.90;;;;;;4860187;29;20128;-54
2023/08/07 06:42:29;;;;;;;3.53;2.00;;;13.60;99.90;;;;;;4860510;29;20049;-49
2023/08/07 06:44:56;;;;;;;6.97;2.28;;;13.60;99.90;;;;;;4860470;29;20106;-52
2023/08/07 06:47:23;;;;;;;5.32;1.90;;;13.70;99.90;;;;;;4860638;29;20121;-50
2023/08/07 06:49:50;;;;;;;4.50;2.10;;;13.70;99.90;;;;;;4862100;29;20052;-53
2023/08/07 06:52:17;;;;;;;4.50;1.90;;;13.70;99.90;;;;;;4864045;29;20573;-52
2023/08/07 06:54:43;;;;;;;4.93;2.10;;;13.70;99.90;;;;;;4863722;29;20061;-52
2023/08/07 06:57:10;;;;;;;4.20;2.00;;;13.80;99.90;;;;;;4863757;29;20045;-50
2023/08/07 06:59:38;;;;;;;5.45;1.80;;;13.80;99.90;;;;;;4863805;29;20371;-51
2023/08/07 07:02:05;;;;;;;5.07;2.17;;;13.80;99.90;;;;;;4863487;29;20069;-50
2023/08/07 07:04:32;;;;;;;5.07;2.05;;;13.80;99.90;;;;;;4863731;29;20038;-52
2023/08/07 07:06:59;;;;;;;6.00;2.00;;;13.90;99.90;;;;;;4863868;29;20516;-53
2023/08/07 07:09:28;;;;;;;6.13;2.10;;;13.90;99.90;;;;;;4863540;29;20059;-55
2023/08/07 07:11:55;;;;;;;4.20;1.90;;;13.90;99.90;;;;;;4863547;29;20061;-54
2023/08/07 07:14:22;;;;;;;4.10;2.00;;;14.00;99.90;;;;;;4863497;29;20102;-52
2023/08/07 07:16:49;;;;;;;4.72;1.88;;;14.00;99.90;;;;;;4863208;29;20045;-52
2023/08/07 07:19:16;;;;;;;5.55;2.08;;;14.00;99.90;;;;;;4863500;29;20069;-54
2023/08/07 07:21:43;;;;;;;4.70;1.92;;;14.10;99.90;;;;;;4863528;29;20097;-55
2023/08/07 07:24:10;;;;;;;8.95;2.30;;;14.10;99.90;;;;;;4863312;29;20053;-53
2023/08/07 07:26:36;;;;;;;6.20;2.30;;;14.20;99.90;;;;;;4877509;29;20188;-50
2023/08/07 07:29:03;;;;;;;5.18;2.03;;;14.20;99.90;;;;;;4863443;29;20041;-53
2023/08/07 07:31:30;;;;;;;5.55;1.80;;;14.20;99.90;;;;;;4862015;29;20042;-53
2023/08/07 07:33:57;;;;;;;4.65;2.03;;;14.30;99.90;;;;;;4863247;29;20459;-54
2023/08/07 07:36:24;;;;;;;4.72;2.25;;;14.30;99.90;;;;;;4862676;29;20453;-52
2023/08/07 07:38:51;;;;;;;5.22;2.08;;;14.40;99.90;;;;;;4863088;29;20372;-56
2023/08/07 07:41:18;;;;;;;6.05;2.50;;;14.40;99.90;;;;;;4862438;29;20124;-56
2023/08/07 07:43:45;;;;;;;4.82;2.22;;;14.50;99.90;;;;;;4863252;29;20465;-56
2023/08/07 07:46:12;;;;;;;4.53;2.00;;;14.50;99.90;;;;;;4863203;29;20049;-54
2023/08/07 07:48:39;;;;;;;5.80;2.28;;;14.50;99.90;;;;;;4862511;29;20080;-57
2023/08/07 07:51:05;;;;;;;5.05;2.40;;;14.60;99.90;;;;;;4862886;29;20477;-54
2023/08/07 07:53:32;;;;;;;5.63;2.15;;;14.60;99.90;;;;;;4862671;29;20152;-53
2023/08/07 07:55:59;;;;;;;6.72;2.00;;;14.60;99.90;;;;;;4862363;29;20061;-55
2023/08/07 07:58:26;;;;;;;5.18;1.88;;;14.70;99.90;;;;;;4862553;29;20065;-56
2023/08/07 08:00:54;;;;;;;7.28;2.00;;;14.70;99.90;;;;;;4861692;29;20102;-57
2023/08/07 08:03:21;;;;;;;5.55;2.00;;;14.80;99.90;;;;;;4862560;29;20048;-53
2023/08/07 08:05:48;;;;;;;9.20;2.00;;;14.80;99.90;;;;;;4862095;29;20050;-54
2023/08/07 08:08:15;;;;;;;5.00;1.85;;;14.90;99.90;;;;;;4862237;29;20060;-57
2023/08/07 08:10:42;;;;;;;4.15;1.65;;;14.90;99.90;;;;;;4862274;29;20061;-56
2023/08/07 08:13:08;;;;;;;5.10;1.65;;;15.00;99.90;;;;;;4862462;29;20154;-56
2023/08/07 08:15:35;;;;;;;6.43;1.83;;;15.10;99.90;;;;;;4860828;29;20133;-53
2023/08/07 08:18:02;;;;;;;3.85;1.42;;;15.10;99.90;;;;;;4862162;29;20090;-56
2023/08/07 08:20:30;;;;;;;4.35;1.60;;;15.20;99.90;;;;;;4861940;29;20073;-57
2023/08/07 08:22:57;;;;;;;4.25;1.52;;;15.20;99.90;;;;;;4861915;29;20049;-56
2023/08/07 08:25:24;;;;;;;4.22;1.42;;;15.30;99.90;;;;;;4861934;29;20090;-57
2023/08/07 08:27:51;;;;;;;5.47;1.90;;;15.30;99.90;;;;;;4861861;29;20056;-54
2023/08/07 08:30:18;;;;;;;5.80;1.40;;;15.40;99.90;;;;;;4861838;29;20056;-54
2023/08/07 08:32:45;;;;;;;3.40;1.42;;;15.40;99.90;;;;;;4861970;29;20506;-57
2023/08/07 08:35:11;;;;;;;4.78;1.58;;;15.50;99.90;;;;;;4861832;29;20155;-57
2023/08/07 08:37:39;;;;;;;5.97;1.58;;;15.50;99.90;;;;;;4861496;29;20132;-56
2023/08/07 08:40:06;;;;;;;5.47;1.65;;;15.60;99.90;;;;;;4860849;29;20053;-56
2023/08/07 08:42:33;;;;;;;5.30;1.40;;;15.70;99.90;;;;;;4860940;29;20042;-57
2023/08/07 08:45:00;;;;;;;4.57;1.27;;;15.80;99.90;;;;;;4860938;29;20050;-53
2023/08/07 08:47:27;;;;;;;4.90;1.23;;;15.90;99.90;;;;;;4860274;29;20474;-51
2023/08/07 08:49:54;;;;;;;5.00;1.27;;;16.00;99.90;;;;;;4860282;29;20049;-51
2023/08/07 08:52:20;;;;;;;2.78;1.20;;;16.00;99.90;;;;;;4860300;29;20090;-51
2023/08/07 08:54:47;;;;;;;3.70;1.20;;;16.10;99.90;;;;;;4861050;29;20095;-52
2023/08/07 08:57:14;;;;;;;3.58;1.20;;;16.10;99.90;;;;;;4860800;29;20041;-54
2023/08/07 08:59:41;;;;;;;4.93;1.15;;;16.20;99.90;;;;;;4861193;29;20512;-50
2023/08/07 09:02:08;;;;;;;2.95;1.35;;;16.30;99.90;;;;;;4861152;29;20046;-50
2023/08/07 09:04:34;;;;;;;4.90;1.60;;;16.40;99.90;;;;;;4861483;29;20049;-50
2023/08/07 09:07:01;;;;;;;5.28;1.10;;;16.50;99.90;;;;;;4861016;29;20433;-50
2023/08/07 09:09:28;;;;;;;4.32;1.25;;;16.50;99.90;;;;;;4859944;29;20132;-55
2023/08/07 09:11:55;;;;;;;3.10;1.17;;;16.50;99.90;;;;;;4860801;29;20133;-51
2023/08/07 09:14:22;;;;;;;3.60;1.52;;;16.70;99.90;;;;;;4861000;29;20052;-52
2023/08/07 09:16:48;;;;;;;3.55;1.45;;;16.80;99.90;;;;;;4860556;29;20045;-54
2023/08/07 09:19:15;;;;;;;4.05;1.27;;;17.00;99.90;;;;;;4861202;29;20485;-52
2023/08/07 09:21:42;;;;;;;5.70;1.33;;;17.10;99.90;;;;;;4860992;29;20385;-59
2023/08/07 09:24:09;;;;;;;3.20;1.20;;;17.20;99.90;;;;;;4861139;29;20056;-52
2023/08/07 09:26:36;;;;;;;5.45;1.40;;;17.30;99.90;;;;;;4861014;29;20069;-52
2023/08/07 09:29:03;;;;;;;5.40;1.23;;;17.30;99.90;;;;;;4861491;29;20053;-51
2023/08/07 09:31:30;;;;;;;2.35;1.15;;;17.30;99.90;;;;;;4860977;29;20453;-54
2023/08/07 09:33:57;;;;;;;3.17;1.17;;;17.40;99.90;;;;;;4861401;29;20049;-55
2023/08/07 09:36:24;;;;;;;4.05;1.10;;;17.40;99.90;;;;;;4860895;29;20045;-53
2023/08/07 09:38:51;;;;;;;3.63;1.15;;;17.50;99.90;;;;;;4861225;29;20079;-54
2023/08/07 09:41:18;;;;;;;3.47;1.00;;;17.60;99.90;;;;;;4860935;29;20041;-52
2023/08/07 09:43:45;;;;;;;4.88;1.20;;;17.70;99.90;;;;;;4861191;29;20042;-52
2023/08/07 09:46:12;;;;;;;3.95;1.30;;;17.70;99.90;;;;;;4861099;29;20405;-53
2023/08/07 09:48:38;;;;;;;2.33;0.90;;;17.80;99.90;;;;;;4860815;29;20124;-53
2023/08/07 09:51:05;;;;;;;3.75;1.30;;;17.90;99.90;;;;;;4860709;29;20239;-52
2023/08/07 09:53:32;;;;;;;4.05;1.20;;;18.00;99.90;;;;;;4859788;29;20492;-53
2023/08/07 09:55:59;;;;;;;4.30;1.05;;;18.10;99.60;;;;;;4860522;29;20057;-51
2023/08/07 09:58:26;;;;;;;2.42;0.90;;;18.20;99.90;;;;;;4861055;29;20429;-52
2023/08/07 10:00:59;;;;;;;3.25;1.00;;;18.30;99.60;;;;;;4874854;29;20377;-51
2023/08/07 10:03:26;;;;;;;4.45;0.90;;;18.30;99.80;;;;;;4860936;29;20394;-49
2023/08/07 10:05:53;;;;;;;5.60;1.42;;;18.20;99.80;;;;;;4861027;29;20113;-53
2023/08/07 10:08:20;;;;;;;2.72;1.15;;;18.20;98.90;;;;;;4860840;29;20716;-51
2023/08/07 10:10:47;;;;;;;3.10;1.00;;;18.20;99.40;;;;;;4860794;29;20048;-54
2023/08/07 10:13:14;;;;;;;2.58;1.20;;;18.20;99.90;;;;;;4860805;29;20053;-48
2023/08/07 10:15:44;;;;;;;3.22;1.10;;;18.20;98.60;;;;;;4860876;29;20073;-53
2023/08/07 10:18:10;;;;;;;3.25;1.00;;;18.40;98.90;;;;;;4860810;29;20046;-53
2023/08/07 10:20:38;;;;;;;2.60;1.00;;;18.60;98.90;;;;;;4860774;29;20470;-47
2023/08/07 10:23:04;;;;;;;5.88;1.20;;;18.70;98.90;;;;;;4860494;29;20037;-52
2023/08/07 10:25:31;;;;;;;2.58;1.00;;;18.80;98.80;;;;;;4863627;29;20053;-50
2023/08/07 10:28:00;;;;;;;2.40;0.90;;;18.80;98.30;;;;;;4864240;29;20069;-55
2023/08/07 10:30:27;;;;;;;3.00;1.20;;;18.90;98.20;;;;;;4864479;29;20041;-54
2023/08/07 10:32:54;;;;;;;2.85;1.23;;;19.00;98.50;;;;;;4863111;29;20053;-54
2023/08/07 10:35:20;;;;;;;4.03;1.45;;;19.00;98.20;;;;;;4864299;29;20071;-53
2023/08/07 10:37:47;;;;;;;3.88;1.23;;;19.00;97.40;;;;;;4864184;29;20041;-54
2023/08/07 10:40:14;;;;;;;2.10;0.90;;;18.90;97.50;;;;;;4864332;29;20041;-51
2023/08/07 10:42:41;;;;;;;3.80;1.00;;;18.90;97.30;;;;;;4878061;29;20132;-53
2023/08/07 10:45:08;;;;;;;2.35;1.20;;;19.00;97.10;;;;;;4862850;29;20146;-53
2023/08/07 10:47:34;;;;;;;6.05;1.30;;;19.10;96.80;;;;;;4864186;29;20049;-54
2023/08/07 10:50:01;;;;;;;3.50;1.23;;;19.10;96.70;;;;;;4863543;29;20065;-56
2023/08/07 10:52:28;;;;;;;5.82;1.45;;;19.10;96.90;;;;;;4864249;29;20049;-54
2023/08/07 10:54:55;;;;;;;9.18;1.40;;;19.10;96.90;;;;;;4877788;29;20045;-56
2023/08/07 10:57:23;;;;;;;3.55;1.40;;;19.00;96.40;;;;;;4863894;29;20116;-57
2023/08/07 10:59:49;;;;;;;10.20;1.70;;;19.00;97.00;;;;;;4863726;29;20041;-50
2023/08/07 11:02:16;;;;;;;3.47;1.00;;;19.10;97.60;;;;;;4863411;29;20080;-54
2023/08/07 11:04:43;;;;;;;9.70;1.60;;;19.20;97.30;;;;;;4863578;29;20045;-54
2023/08/07 11:07:10;;;;;;;3.22;1.30;;;19.20;97.10;;;;;;4863900;29;20049;-55
2023/08/07 11:09:37;;;;;;;2.95;1.00;;;19.30;96.60;;;;;;4863892;29;20052;-53
2023/08/07 11:12:03;;;;;;;7.05;1.55;;;19.30;96.90;;;;;;4863668;29;20045;-57
2023/08/07 11:14:30;;;;;;;3.70;1.08;;;19.30;97.00;;;;;;4862096;29;20049;-56
2023/08/07 11:16:57;;;;;;;2.95;1.17;;;19.30;96.20;;;;;;4863669;29;20410;-57
2023/08/07 11:19:24;;;;;;;3.25;1.20;;;19.30;96.00;;;;;;4861791;29;20041;-56
2023/08/07 11:21:51;;;;;;;5.32;1.23;;;19.30;96.00;;;;;;4848634;29;20046;-51
2023/08/07 11:24:20;;;;;;;3.75;1.20;;;19.50;96.30;;;;;;4844566;29;20394;-53
2023/08/07 11:26:46;;;;;;;3.13;1.10;;;19.50;95.30;;;;;;4844527;29;20486;-56
2023/08/07 11:29:13;;;;;;;3.28;1.23;;;19.50;95.50;;;;;;4843772;29;20045;-56
2023/08/07 11:31:41;;;;;;;3.50;1.20;;;19.60;95.80;;;;;;4844765;29;20054;-55
2023/08/07 11:34:08;;;;;;;3.15;1.23;;;19.60;95.80;;;;;;4843679;29;20049;-53
2023/08/07 11:36:35;;;;;;;2.22;0.93;;;19.50;95.50;;;;;;4843924;29;20046;-51
2023/08/07 11:39:03;;;;;;;3.97;1.10;;;19.40;93.80;;;;;;4843751;29;20045;-55
2023/08/07 11:41:30;;;;;;;3.03;1.10;;;19.50;95.20;;;;;;4843994;29;20521;-56
2023/08/07 11:43:57;;;;;;;3.78;1.23;;;19.60;95.20;;;;;;4844019;29;20053;-57
2023/08/07 11:46:23;;;;;;;4.28;1.00;;;19.70;95.50;;;;;;4843999;29;20494;-55
2023/08/07 11:48:50;;;;;;;3.10;1.17;;;19.90;94.20;;;;;;4843504;29;20497;-55
2023/08/07 11:51:17;;;;;;;3.88;1.30;;;20.00;93.10;;;;;;4843592;29;20056;-56
2023/08/07 11:53:44;;;;;;;4.65;1.20;;;20.00;93.30;;;;;;4858223;29;20053;-52
2023/08/07 11:56:11;;;;;;;4.28;0.95;;;20.00;93.30;;;;;;4843191;29;20060;-54
2023/08/07 11:58:38;;;;;;;3.22;1.02;;;20.10;93.60;;;;;;4844187;29;20531;-54
2023/08/07 12:01:05;;;;;;;3.03;1.00;;;20.20;92.70;;;;;;4837601;29;20125;-52
2023/08/07 12:03:33;;;;;;;3.33;1.27;;;20.30;92.20;;;;;;4843805;29;20042;-50
2023/08/07 12:06:00;;;;;;;4.00;1.23;;;20.30;92.10;;;;;;4842286;29;20054;-52
2023/08/07 12:08:26;;;;;;;3.90;1.23;;;20.30;92.30;;;;;;4843793;29;20050;-55
2023/08/07 12:10:53;;;;;;;2.75;1.10;;;20.40;92.20;;;;;;4844000;29;20414;-55
2023/08/07 12:13:20;;;;;;;3.03;1.02;;;20.60;92.40;;;;;;4842211;29;20057;-57
2023/08/07 12:15:47;;;;;;;4.80;1.00;;;20.60;92.40;;;;;;4843647;29;20053;-55
2023/08/07 12:18:14;;;;;;;2.72;1.00;;;20.70;93.10;;;;;;4843448;29;20410;-54
2023/08/07 12:20:41;;;;;;;3.38;1.20;;;20.80;92.60;;;;;;4857063;29;20083;-55
2023/08/07 12:23:08;;;;;;;3.75;1.20;;;20.90;92.70;;;;;;4843284;29;20034;-53
2023/08/07 12:25:35;;;;;;;2.95;1.02;;;20.90;92.50;;;;;;4843486;29;20102;-55
2023/08/07 12:28:02;;;;;;;3.33;1.40;;;20.70;90.90;;;;;;4842978;29;20513;-55
2023/08/07 12:30:30;;;;;;;3.72;1.10;;;20.50;91.10;;;;;;4857558;29;20038;-51
2023/08/07 12:32:56;;;;;;;3.55;1.20;;;20.60;91.70;;;;;;4843133;29;20055;-52
2023/08/07 12:35:23;;;;;;;2.50;1.10;;;20.70;91.40;;;;;;4843288;29;20050;-54
2023/08/07 12:37:50;;;;;;;2.85;1.30;;;20.80;91.90;;;;;;4842480;29;20126;-54
2023/08/07 12:40:20;;;;;;;3.55;1.17;;;21.00;92.00;;;;;;4843285;29;20172;-53
2023/08/07 12:42:50;;;;;;;3.40;1.40;;;21.20;92.40;;;;;;4843112;29;20402;-55
2023/08/07 12:45:18;;;;;;;3.15;1.23;;;21.20;91.90;;;;;;4842645;29;20406;-54